createdAt,value
2019-05-19T00:03:58.013Z,16.97
2019-05-19T00:08:09.819Z,17.93
2019-05-19T00:12:21.765Z,19.13
2019-05-19T00:16:33.626Z,21.27
2019-05-19T00:20:45.983Z,20.67
2019-05-19T00:24:57.896Z,19.67
2019-05-19T00:29:09.755Z,22.27
2019-05-19T00:33:21.342Z,22.93
2019-05-19T00:37:33.023Z,22.97
2019-05-19T00:41:44.835Z,22.83
2019-05-19T00:45:56.636Z,23.77
2019-05-19T00:50:09.047Z,24.67
2019-05-19T00:54:21.072Z,21.77
2019-05-19T00:58:34.864Z,22.83
2019-05-19T01:02:46.612Z,21.57
2019-05-19T01:06:58.725Z,22.13
2019-05-19T01:11:10.706Z,20.63
2019-05-19T01:15:23.317Z,20.30
2019-05-19T01:19:35.172Z,20.63
2019-05-19T01:23:46.829Z,22.03
2019-05-19T01:27:58.796Z,19.60
2019-05-19T01:32:10.649Z,21.47
2019-05-19T01:36:26.524Z,22.43
2019-05-19T01:40:38.259Z,21.57
2019-05-19T01:44:49.950Z,21.47
2019-05-19T01:49:01.745Z,20.63
2019-05-19T01:53:13.923Z,21.87
2019-05-19T01:57:25.805Z,20.63
2019-05-19T02:01:37.653Z,22.33
2019-05-19T02:05:49.468Z,21.90
2019-05-19T02:10:01.322Z,20.87
2019-05-19T02:14:14.147Z,21.07
2019-05-19T02:18:26.920Z,18.57
2019-05-19T02:22:38.517Z,20.13
2019-05-19T02:26:50.374Z,20.27
2019-05-19T02:31:02.126Z,19.83
2019-05-19T02:35:14.124Z,21.30
2019-05-19T02:39:26.946Z,21.00
2019-05-19T02:43:39.126Z,20.67
2019-05-19T02:47:54.230Z,20.60
2019-05-19T02:52:07.043Z,21.40
2019-05-19T02:56:19.638Z,20.67
2019-05-19T03:00:39.211Z,19.00
2019-05-19T03:04:50.948Z,19.30
2019-05-19T03:09:02.755Z,20.30
2019-05-19T03:13:14.568Z,18.87
2019-05-19T03:17:26.369Z,18.20
2019-05-19T03:21:38.169Z,17.40
2019-05-19T03:25:49.770Z,16.93
2019-05-19T03:30:20.484Z,17.73
2019-05-19T03:34:32.205Z,15.40
2019-05-19T03:38:43.889Z,13.73
2019-05-19T03:42:55.715Z,15.63
2019-05-19T03:47:07.614Z,15.10
2019-05-19T03:51:30.293Z,14.60
2019-05-19T03:55:33.010Z,12.83
2019-05-19T03:59:44.864Z,13.27
2019-05-19T04:03:56.732Z,13.20
2019-05-19T04:08:08.601Z,12.07
2019-05-19T04:12:20.476Z,11.43
2019-05-19T04:16:32.184Z,10.70
2019-05-19T04:20:44.165Z,10.43
2019-05-19T04:24:55.969Z,11.30
2019-05-19T04:29:07.879Z,10.57
2019-05-19T04:33:19.934Z,11.07
2019-05-19T04:37:32.039Z,10.47
2019-05-19T04:41:44.204Z,10.97
2019-05-19T04:45:56.101Z,11.13
2019-05-19T04:50:09.027Z,11.60
2019-05-19T04:54:20.775Z,11.80
2019-05-19T04:58:32.674Z,11.70
2019-05-19T05:02:44.445Z,11.90
2019-05-19T05:06:56.356Z,11.03
2019-05-19T05:11:08.133Z,11.57
2019-05-19T05:15:19.936Z,13.03
2019-05-19T05:19:31.756Z,13.17
2019-05-19T05:23:43.352Z,13.07
2019-05-19T05:27:55.047Z,11.37
2019-05-19T05:32:06.837Z,11.53
2019-05-19T05:36:18.707Z,11.53
2019-05-19T05:40:30.545Z,11.00
2019-05-19T05:44:42.339Z,10.77
2019-05-19T05:48:53.956Z,9.83
2019-05-19T05:53:05.627Z,9.70
2019-05-19T05:57:17.515Z,10.57
2019-05-19T06:01:29.494Z,10.67
2019-05-19T06:05:41.356Z,9.70
2019-05-19T06:09:53.204Z,10.00
2019-05-19T06:14:05.236Z,10.47
2019-05-19T06:18:17.173Z,10.80
2019-05-19T06:22:28.788Z,10.77
2019-05-19T06:26:40.569Z,10.30
2019-05-19T06:30:52.389Z,10.00
2019-05-19T06:35:04.158Z,9.70
2019-05-19T06:39:16.117Z,9.50
2019-05-19T06:43:28.085Z,10.00
2019-05-19T06:47:40.787Z,10.90
2019-05-19T06:51:52.597Z,10.87
2019-05-19T06:56:04.462Z,10.77
2019-05-19T07:00:16.610Z,12.33
2019-05-19T07:04:28.405Z,12.80
2019-05-19T07:08:41.159Z,13.60
2019-05-19T07:12:52.881Z,12.80
2019-05-19T07:17:04.843Z,13.40
2019-05-19T07:21:16.737Z,13.13
2019-05-19T07:25:28.545Z,12.47
2019-05-19T07:29:40.343Z,13.90
2019-05-19T07:33:52.149Z,13.90
2019-05-19T07:38:07.416Z,13.50
2019-05-19T07:42:19.198Z,13.27
2019-05-19T07:46:30.925Z,13.80
2019-05-19T07:50:43.560Z,12.90
2019-05-19T07:54:55.357Z,13.40
2019-05-19T07:59:08.021Z,14.03
2019-05-19T08:03:19.976Z,13.87
2019-05-19T08:07:31.799Z,14.23
2019-05-19T08:11:43.581Z,15.57
2019-05-19T08:15:55.275Z,14.67
2019-05-19T08:20:07.510Z,13.27
2019-05-19T08:24:19.105Z,14.83
2019-05-19T08:28:32.018Z,13.73
2019-05-19T08:32:43.814Z,13.17
2019-05-19T08:36:55.631Z,13.00
2019-05-19T08:41:07.321Z,11.60
2019-05-19T08:45:19.289Z,11.63
2019-05-19T08:49:31.149Z,11.43
2019-05-19T08:53:43.028Z,10.90
2019-05-19T08:57:55.306Z,10.83
2019-05-19T09:02:07.256Z,9.53
2019-05-19T09:06:19.449Z,9.47
2019-05-19T09:10:31.356Z,8.13
2019-05-19T09:14:43.148Z,7.83
2019-05-19T09:18:55.014Z,7.37
2019-05-19T09:23:06.877Z,7.93
2019-05-19T09:27:18.749Z,7.23
2019-05-19T09:31:30.727Z,5.67
2019-05-19T09:35:43.492Z,6.13
2019-05-19T09:39:55.289Z,5.73
2019-05-19T09:44:06.992Z,5.50
2019-05-19T09:48:18.824Z,5.97
2019-05-19T09:52:30.592Z,5.87
2019-05-19T09:56:42.580Z,5.70
2019-05-19T10:00:54.398Z,5.33
2019-05-19T10:05:07.408Z,5.33
2019-05-19T10:09:51.348Z,5.90
2019-05-19T10:14:03.194Z,5.53
2019-05-19T10:18:15.081Z,5.43
2019-05-19T10:22:27.094Z,5.80
2019-05-19T10:26:40.011Z,4.53
2019-05-19T10:30:51.641Z,4.57
2019-05-19T10:35:03.424Z,4.13
2019-05-19T10:39:15.215Z,3.77
2019-05-19T10:43:27.022Z,4.00
2019-05-19T10:47:38.838Z,3.60
2019-05-19T10:51:50.484Z,3.63
2019-05-19T10:56:02.133Z,3.77
2019-05-19T11:00:14.712Z,3.97
2019-05-19T11:04:26.437Z,3.83
2019-05-19T11:08:38.247Z,3.50
2019-05-19T11:12:50.140Z,3.33
2019-05-19T11:17:01.939Z,3.50
2019-05-19T11:21:13.750Z,3.47
2019-05-19T11:25:33.598Z,3.63
2019-05-19T11:29:38.993Z,3.40
2019-05-19T11:33:50.601Z,4.00
2019-05-19T11:38:02.381Z,3.57
2019-05-19T11:42:14.173Z,4.10
2019-05-19T11:46:25.982Z,3.50
2019-05-19T11:50:41.895Z,3.30
2019-05-19T11:54:51.100Z,3.30
2019-05-19T11:59:03.037Z,2.90
2019-05-19T12:03:14.930Z,3.20
2019-05-19T12:07:26.721Z,2.80
2019-05-19T12:11:38.690Z,2.27
2019-05-19T12:15:50.533Z,2.60
2019-05-19T12:20:02.341Z,2.60
2019-05-19T12:24:14.141Z,2.50
2019-05-19T12:28:26.008Z,2.40
2019-05-19T12:32:37.655Z,2.30
2019-05-19T12:36:49.343Z,2.43
2019-05-19T12:41:01.133Z,2.47
2019-05-19T12:45:13.548Z,2.60
2019-05-19T12:49:25.357Z,2.23
2019-05-19T12:53:37.043Z,2.40
2019-05-19T12:57:48.836Z,3.03
2019-05-19T13:02:00.540Z,2.70
2019-05-19T13:06:12.350Z,2.70
2019-05-19T13:10:24.150Z,2.80
2019-05-19T13:14:35.967Z,2.80
2019-05-19T13:18:47.780Z,2.63
2019-05-19T13:22:59.368Z,2.43
2019-05-19T13:27:11.051Z,2.63
2019-05-19T13:31:22.905Z,2.70
2019-05-19T13:35:34.756Z,2.63
2019-05-19T13:39:46.549Z,2.40
2019-05-19T13:43:59.743Z,2.93
2019-05-19T13:48:11.610Z,2.57
2019-05-19T13:52:23.509Z,2.93
2019-05-19T13:56:35.288Z,2.70
2019-05-19T14:00:47.219Z,2.77
2019-05-19T14:04:59.428Z,3.20
2019-05-19T14:09:11.212Z,3.23
2019-05-19T14:13:23.021Z,3.07
2019-05-19T14:17:35.943Z,3.20
2019-05-19T14:21:47.647Z,2.80
2019-05-19T14:25:59.497Z,2.93
2019-05-19T14:30:11.745Z,3.50
2019-05-19T14:34:23.713Z,3.30
2019-05-19T14:38:35.663Z,3.47
2019-05-19T14:42:54.372Z,3.73
2019-05-19T14:47:06.105Z,3.10
2019-05-19T14:51:17.928Z,3.30
2019-05-19T14:55:29.825Z,3.13
2019-05-19T14:59:41.781Z,3.30
2019-05-19T15:03:53.683Z,2.80
2019-05-19T15:08:06.362Z,2.90
2019-05-19T15:12:18.258Z,2.80
2019-05-19T15:16:30.060Z,2.50
2019-05-19T15:20:41.881Z,2.97
2019-05-19T15:24:53.681Z,2.30
2019-05-19T15:29:05.554Z,2.13
2019-05-19T15:33:19.780Z,2.60
2019-05-19T15:37:31.625Z,2.20
2019-05-19T15:41:43.434Z,2.07
2019-05-19T15:45:55.036Z,2.10
2019-05-19T15:50:08.545Z,2.10
2019-05-19T15:54:20.377Z,2.43
2019-05-19T15:58:32.274Z,2.20
2019-05-19T16:02:44.178Z,2.40
2019-05-19T16:06:56.274Z,2.03
2019-05-19T16:11:09.421Z,2.57
2019-05-19T16:15:21.245Z,2.33
2019-05-19T16:19:32.892Z,2.50
2019-05-19T16:23:44.708Z,2.50
2019-05-19T16:27:56.521Z,2.23
2019-05-19T16:32:08.314Z,3.03
2019-05-19T16:36:20.161Z,2.33
2019-05-19T16:40:31.802Z,2.27
2019-05-19T16:44:43.616Z,2.10
2019-05-19T16:48:55.409Z,2.00
2019-05-19T16:53:07.471Z,2.50
2019-05-19T16:57:19.324Z,2.20
2019-05-19T17:01:31.329Z,2.03
2019-05-19T17:05:43.137Z,2.70
2019-05-19T17:09:54.807Z,2.33
2019-05-19T17:14:06.634Z,3.40
2019-05-19T17:18:18.437Z,3.47
2019-05-19T17:22:30.236Z,3.17
2019-05-19T17:26:42.183Z,2.53
2019-05-19T17:30:54.049Z,2.93
2019-05-19T17:35:06.063Z,2.97
2019-05-19T17:39:17.937Z,2.87
2019-05-19T17:43:29.637Z,2.83
2019-05-19T17:47:41.656Z,3.40
2019-05-19T17:51:53.696Z,3.10
2019-05-19T17:56:05.997Z,2.97
2019-05-19T18:00:22.289Z,2.87
2019-05-19T18:04:34.804Z,3.20
2019-05-19T18:08:46.612Z,3.07
2019-05-19T18:12:58.540Z,3.23
2019-05-19T18:17:10.320Z,3.33
2019-05-19T18:21:22.105Z,3.90
2019-05-19T18:25:34.070Z,3.40
2019-05-19T18:29:46.312Z,4.37
2019-05-19T18:33:58.320Z,4.23
2019-05-19T18:38:10.324Z,4.10
2019-05-19T18:42:22.125Z,4.37
2019-05-19T18:46:33.994Z,4.20
2019-05-19T18:50:45.656Z,3.70
2019-05-19T18:54:57.328Z,4.00
2019-05-19T18:59:09.129Z,4.23
2019-05-19T19:03:21.196Z,4.50
2019-05-19T19:07:53.724Z,4.47
2019-05-19T19:12:05.532Z,4.80
2019-05-19T19:16:17.377Z,4.63
2019-05-19T19:20:29.230Z,5.50
2019-05-19T19:24:41.048Z,4.30
2019-05-19T19:28:53.864Z,4.73
2019-05-19T19:33:05.858Z,5.27
2019-05-19T19:37:17.656Z,4.40
2019-05-19T19:41:29.463Z,4.50
2019-05-19T19:45:41.337Z,4.43
2019-05-19T19:49:53.637Z,4.70
2019-05-19T19:54:05.472Z,4.47
2019-05-19T19:58:18.236Z,4.60
2019-05-19T20:02:30.192Z,4.40
2019-05-19T20:06:42.476Z,4.23
2019-05-19T20:10:54.286Z,4.90
2019-05-19T20:15:06.465Z,3.73
2019-05-19T20:19:18.383Z,4.33
2019-05-19T20:23:30.236Z,4.63
2019-05-19T20:27:42.138Z,4.70
2019-05-19T20:31:54.045Z,4.43
2019-05-19T20:36:05.945Z,4.63
2019-05-19T20:40:18.245Z,4.80
2019-05-19T20:44:30.057Z,5.50
2019-05-19T20:48:41.933Z,5.00
2019-05-19T20:52:53.578Z,5.40
2019-05-19T20:57:05.365Z,5.53
2019-05-19T21:01:17.272Z,6.10
2019-05-19T21:05:29.207Z,6.40
2019-05-19T21:09:41.085Z,5.63
2019-05-19T21:13:53.596Z,6.10
2019-05-19T21:18:05.420Z,6.53
2019-05-19T21:22:17.254Z,6.27
2019-05-19T21:26:29.288Z,6.63
2019-05-19T21:30:41.104Z,6.57
2019-05-19T21:34:53.001Z,7.10
2019-05-19T21:39:06.497Z,7.13
2019-05-19T21:43:19.343Z,7.33
2019-05-19T21:47:31.176Z,7.90
2019-05-19T21:51:43.025Z,8.40
2019-05-19T21:55:54.781Z,9.10
2019-05-19T22:00:08.879Z,9.47
2019-05-19T22:04:20.785Z,9.13
2019-05-19T22:08:32.695Z,10.10
2019-05-19T22:12:44.649Z,9.57
2019-05-19T22:16:56.444Z,9.67
2019-05-19T22:21:08.095Z,9.50
2019-05-19T22:25:19.824Z,9.90
2019-05-19T22:29:31.648Z,9.80
2019-05-19T22:33:43.444Z,10.20
2019-05-19T22:37:55.253Z,10.80
2019-05-19T22:42:07.049Z,10.97
2019-05-19T22:46:18.859Z,11.00
2019-05-19T22:50:30.457Z,10.87
2019-05-19T22:54:42.196Z,10.90
2019-05-19T22:58:55.961Z,10.83
2019-05-19T23:03:07.844Z,9.37
2019-05-19T23:07:19.756Z,9.27
2019-05-19T23:11:31.600Z,9.20
2019-05-19T23:15:43.396Z,9.37
2019-05-19T23:19:55.222Z,9.73
2019-05-19T23:24:07.198Z,10.17
2019-05-19T23:28:18.909Z,10.83
2019-05-19T23:32:30.602Z,11.20
2019-05-19T23:36:42.408Z,12.30
2019-05-19T23:40:54.411Z,11.77
2019-05-19T23:45:06.526Z,12.07
2019-05-19T23:49:18.337Z,12.00
2019-05-19T23:53:30.121Z,13.87
2019-05-19T23:57:42.002Z,14.17
